Potter, Nebraska
Current Conditions -  °F | °C
As of 2:55 PM on Monday 22 Dec 2014 (Local Time) from KIBM Reporting Station
Clear Clear  
Wind Chill: 27°   Ceiling: Unl
Heat Index: 36°   Visibility: 10mi
Dew Point: 27°   Wind: 15mph
Humidity: 69%   Direction: 310°NW
Pressure: 29.63"   Gusts: 21mph
Location:  41.22°N, 103.32°W
Report Text: KIBM 222155Z AUTO 31013G18KT 10SM CLR 02/M03 A2963 RMK AO2 T00221029
Loading
Personal Weather Stations






























Interactive Weather Map New forecast layout! Learn more

10-Day Weather Forecast

Advertisements
Track Severe Weather on mobile